Ardmore, North Carolina
Current Conditions -  °F | °C
As of 11:54 PM on Wednesday 26 Nov 2014 (Local Time) from KINT Reporting Station
Light Rain Light Rain  
Wind Chill:   Ceiling: 7000
Heat Index:   Visibility: 6mi
Dew Point:   Wind: 5mph
Humidity: 93%   Direction: 110°ESE
Pressure: 30.03"   Gusts: NA
Location:  36.0595°N, 80.3192°W
Report Text: KINT 270454Z AUTO 11004KT 6SM -RA BR FEW027 BKN070 OVC090 05/04 A3003 RMK AO2 SLP171 P0008 T00500039 400890028
Loading
Personal Weather Stations






























Interactive Weather Map New forecast layout! Learn more

10-Day Weather Forecast

Advertisements
Track Severe Weather on mobile